Terminal Aerodrome Forecast
Issued by NWS

Home | Current Version | Previous Version | Text Only | Print | Product List | Glossary On
Versions: 1 2 3 4 5 6 7 8 9 10 11 12 13 14 15 16 17 18 19 20 21 22 23
719
FTUS41 KPHI 021127
TAFMIV
TAF
KMIV 021127Z 0212/0312 09005KT 5SM BR OVC004
      TEMPO 0212/0214 2SM -SHRA BR OVC002
     FM021400 13005KT 6SM BR OVC006
     FM021900 18007KT P6SM OVC015
     FM030000 13005KT 5SM -SHRA BR OVC007
     FM030300 08005KT 3SM SHRA BR OVC004=

USA.gov is the U.S. government's official web portal to all federal, state and local government web resources and services.